Time;durP1;ratioP1;P1;durP2;ratioP2;P2;SDS_P1;SDS_P2;PMS_P1;PMS_P2;Temp;Humidity;BMP_temperature;BMP_pressure;BME280_temperature;BME280_humidity;BME280_pressure;Samples;Min_cycle;Max_cycle;Signal;HPM_P1;HPM_P2
2021/07/21 00:01:25;;;;;;;0.00;0.00;;;;;;;;;;5108909;28;20247;-69
2021/07/21 00:03:51;;;;;;;0.03;0.03;;;;;;;;;;5117002;28;20251;-69
2021/07/21 00:06:18;;;;;;;0.00;0.00;;;;;;;;;;5105810;28;20382;-69
2021/07/21 00:08:44;;;;;;;0.10;0.10;;;;;;;;;;5113345;28;20219;-69
2021/07/21 00:13:58;;;;;;;0.10;0.10;;;;;;;;;;5105746;28;20225;-69
2021/07/21 00:16:30;;;;;;;0.00;0.00;;;;;;;;;;5105773;28;20208;-69
2021/07/21 00:19:00;;;;;;;0.10;0.10;;;;;;;;;;5113001;28;20313;-69
2021/07/21 00:21:27;;;;;;;0.10;0.10;;;;;;;;;;5126258;28;20480;-69
2021/07/21 00:23:53;;;;;;;0.10;0.10;;;;;;;;;;5118465;28;20204;-69
2021/07/21 00:26:19;;;;;;;0.00;0.00;;;;;;;;;;5105311;28;20298;-69
2021/07/21 00:28:45;;;;;;;0.10;0.10;;;;;;;;;;5109622;28;20505;-69
2021/07/21 00:31:15;;;;;;;0.00;0.00;;;;;;;;;;5114944;27;20206;-69
2021/07/21 00:33:42;;;;;;;0.00;0.00;;;;;;;;;;5107843;28;20216;-69
2021/07/21 00:36:08;;;;;;;0.10;0.10;;;;;;;;;;5116919;28;20270;-69
2021/07/21 00:38:34;;;;;;;0.03;0.03;;;;;;;;;;5105234;28;20208;-69
2021/07/21 00:41:00;;;;;;;0.10;0.10;;;;;;;;;;5105232;28;20235;-69
2021/07/21 00:43:28;;;;;;;0.08;0.08;;;;;;;;;;5105121;28;20262;-69
2021/07/21 00:45:54;;;;;;;0.10;0.10;;;;;;;;;;5104928;28;20384;-69
2021/07/21 00:48:21;;;;;;;0.10;0.10;;;;;;;;;;5104724;28;20467;-69
2021/07/21 00:50:47;;;;;;;0.00;0.00;;;;;;;;;;5119042;28;20207;-69
2021/07/21 00:53:14;;;;;;;0.08;0.08;;;;;;;;;;5110441;28;20224;-69
2021/07/21 00:55:41;;;;;;;0.05;0.05;;;;;;;;;;5124932;28;20204;-69
2021/07/21 00:58:07;;;;;;;0.08;0.08;;;;;;;;;;5106537;28;20216;-69
2021/07/21 01:00:33;;;;;;;0.00;0.00;;;;;;;;;;5115277;28;20239;-69
2021/07/21 01:02:59;;;;;;;0.10;0.10;;;;;;;;;;5123077;28;20207;-69
2021/07/21 01:05:29;;;;;;;0.10;0.10;;;;;;;;;;5104639;28;20200;-69
2021/07/21 01:07:56;;;;;;;0.10;0.10;;;;;;;;;;5104178;28;20450;-69
2021/07/21 01:10:22;;;;;;;0.00;0.00;;;;;;;;;;5104574;28;20532;-69
2021/07/21 01:12:50;;;;;;;0.00;0.00;;;;;;;;;;5104877;28;20203;-69
2021/07/21 01:15:17;;;;;;;0.00;0.00;;;;;;;;;;5109537;28;20248;-68
2021/07/21 01:17:46;;;;;;;0.00;0.00;;;;;;;;;;5112975;28;20235;-68
2021/07/21 01:20:23;;;;;;;0.08;0.08;;;;;;;;;;5122417;28;20233;-68
2021/07/21 01:22:53;;;;;;;0.10;0.10;;;;;;;;;;5124760;28;20192;-69
2021/07/21 01:25:24;;;;;;;0.10;0.10;;;;;;;;;;5106031;28;20204;-68
2021/07/21 01:27:53;;;;;;;0.10;0.10;;;;;;;;;;5114779;28;20221;-68
2021/07/21 01:30:20;;;;;;;0.00;0.00;;;;;;;;;;5110272;28;20428;-67
2021/07/21 01:32:50;;;;;;;0.10;0.10;;;;;;;;;;5114550;28;20274;-69
2021/07/21 01:35:18;;;;;;;0.10;0.10;;;;;;;;;;5103692;28;20211;-69
2021/07/21 01:37:47;;;;;;;0.00;0.00;;;;;;;;;;5112200;28;20541;-69
2021/07/21 01:40:16;;;;;;;0.10;0.10;;;;;;;;;;5109374;28;20206;-69
2021/07/21 01:42:44;;;;;;;0.00;0.00;;;;;;;;;;5107997;28;20200;-68
2021/07/21 01:45:12;;;;;;;0.00;0.00;;;;;;;;;;5113251;28;20217;-68
2021/07/21 01:47:39;;;;;;;0.00;0.00;;;;;;;;;;5107692;28;20266;-69
2021/07/21 01:50:07;;;;;;;0.10;0.10;;;;;;;;;;5103865;28;20290;-68
2021/07/21 01:52:34;;;;;;;0.05;0.05;;;;;;;;;;5117979;28;20202;-68
2021/07/21 01:55:02;;;;;;;0.10;0.10;;;;;;;;;;5117613;28;20202;-68
2021/07/21 01:57:30;;;;;;;0.00;0.00;;;;;;;;;;5103854;28;20474;-68
2021/07/21 01:59:57;;;;;;;0.10;0.10;;;;;;;;;;5103452;28;20241;-69
2021/07/21 02:02:25;;;;;;;0.10;0.10;;;;;;;;;;5111283;28;20206;-68
2021/07/21 02:04:52;;;;;;;0.10;0.10;;;;;;;;;;5116830;28;20409;-69
2021/07/21 02:07:19;;;;;;;0.10;0.10;;;;;;;;;;5103511;28;20211;-69
2021/07/21 02:09:46;;;;;;;0.10;0.10;;;;;;;;;;5119826;28;20203;-69
2021/07/21 02:12:13;;;;;;;0.00;0.00;;;;;;;;;;5116590;28;20502;-69
2021/07/21 02:14:40;;;;;;;0.00;0.00;;;;;;;;;;5109019;28;20271;-70
2021/07/21 02:17:07;;;;;;;0.10;0.10;;;;;;;;;;5115125;28;20213;-71
2021/07/21 02:19:34;;;;;;;0.00;0.00;;;;;;;;;;5114372;28;20229;-70
2021/07/21 02:22:01;;;;;;;0.10;0.10;;;;;;;;;;5112139;28;20205;-70
2021/07/21 02:24:28;;;;;;;0.10;0.10;;;;;;;;;;5108889;28;20265;-70
2021/07/21 02:26:54;;;;;;;0.00;0.00;;;;;;;;;;5108614;28;20238;-69
2021/07/21 02:29:22;;;;;;;0.10;0.10;;;;;;;;;;5108888;28;20250;-68
2021/07/21 02:31:51;;;;;;;0.00;0.00;;;;;;;;;;5107378;28;20199;-69
2021/07/21 02:34:18;;;;;;;0.40;0.40;;;;;;;;;;5109025;28;20210;-69
2021/07/21 02:36:45;;;;;;;0.10;0.10;;;;;;;;;;5120457;28;20254;-69
2021/07/21 02:39:12;;;;;;;0.10;0.10;;;;;;;;;;5106104;28;20252;-69
2021/07/21 02:41:42;;;;;;;0.10;0.10;;;;;;;;;;5123841;28;20205;-69
2021/07/21 02:44:08;;;;;;;0.08;0.08;;;;;;;;;;5123266;28;20226;-69
2021/07/21 02:46:34;;;;;;;0.10;0.10;;;;;;;;;;5116053;28;20205;-68
2021/07/21 02:49:01;;;;;;;0.05;0.05;;;;;;;;;;5117017;28;20474;-69
2021/07/21 02:51:28;;;;;;;0.10;0.10;;;;;;;;;;5123433;28;20199;-71
2021/07/21 02:53:59;;;;;;;0.00;0.00;;;;;;;;;;5111733;28;20205;-69
2021/07/21 02:56:27;;;;;;;0.10;0.10;;;;;;;;;;5121872;28;20377;-70
2021/07/21 02:58:57;;;;;;;0.10;0.10;;;;;;;;;;5112670;28;20482;-69
2021/07/21 03:01:24;;;;;;;0.00;0.00;;;;;;;;;;5105918;28;20209;-70
2021/07/21 03:03:51;;;;;;;0.08;0.08;;;;;;;;;;5114171;28;20207;-68
2021/07/21 03:06:18;;;;;;;0.00;0.00;;;;;;;;;;5117835;28;20320;-68
2021/07/21 03:08:45;;;;;;;0.00;0.00;;;;;;;;;;5110273;28;20229;-70
2021/07/21 03:11:13;;;;;;;0.00;0.00;;;;;;;;;;5123626;28;20209;-69
2021/07/21 03:13:43;;;;;;;0.10;0.10;;;;;;;;;;5108540;28;20217;-68
2021/07/21 03:16:10;;;;;;;0.10;0.10;;;;;;;;;;5125545;28;20269;-68
2021/07/21 03:18:38;;;;;;;0.00;0.00;;;;;;;;;;5127341;28;20442;-68
2021/07/21 03:21:05;;;;;;;0.10;0.10;;;;;;;;;;5115855;28;20243;-68
2021/07/21 03:23:31;;;;;;;0.10;0.10;;;;;;;;;;5124058;28;20263;-68
2021/07/21 03:25:58;;;;;;;0.05;0.05;;;;;;;;;;5127080;28;20235;-68
2021/07/21 03:28:29;;;;;;;0.05;0.05;;;;;;;;;;5125950;28;20274;-68
2021/07/21 03:30:56;;;;;;;0.10;0.10;;;;;;;;;;5114483;28;20208;-70
2021/07/21 03:33:24;;;;;;;0.10;0.10;;;;;;;;;;5127155;27;20210;-69
2021/07/21 03:35:51;;;;;;;0.10;0.10;;;;;;;;;;5112968;28;20210;-68
2021/07/21 03:38:21;;;;;;;0.00;0.00;;;;;;;;;;5126935;28;20491;-68
2021/07/21 03:40:50;;;;;;;0.08;0.08;;;;;;;;;;5124989;28;20242;-68
2021/07/21 03:43:16;;;;;;;0.00;0.00;;;;;;;;;;5126880;28;20252;-68
2021/07/21 03:45:44;;;;;;;0.10;0.10;;;;;;;;;;5124134;28;20408;-69
2021/07/21 03:48:11;;;;;;;0.10;0.10;;;;;;;;;;5114973;28;20270;-69
2021/07/21 03:50:37;;;;;;;0.10;0.10;;;;;;;;;;5126394;28;20204;-68
2021/07/21 03:53:04;;;;;;;0.00;0.00;;;;;;;;;;5126438;28;20420;-68
2021/07/21 03:55:32;;;;;;;0.00;0.00;;;;;;;;;;5112896;28;20381;-69
2021/07/21 03:57:58;;;;;;;0.05;0.05;;;;;;;;;;5125883;28;20201;-69
2021/07/21 04:00:25;;;;;;;0.10;0.10;;;;;;;;;;5126253;28;20209;-68
2021/07/21 04:02:54;;;;;;;0.10;0.10;;;;;;;;;;5112035;28;20223;-68
2021/07/21 04:05:21;;;;;;;0.05;0.05;;;;;;;;;;5126055;28;20552;-68
2021/07/21 04:07:47;;;;;;;0.10;0.10;;;;;;;;;;5123950;28;20291;-68
2021/07/21 04:10:14;;;;;;;0.00;0.00;;;;;;;;;;5114319;28;20200;-67
2021/07/21 04:12:41;;;;;;;0.08;0.08;;;;;;;;;;5126063;28;20200;-68
2021/07/21 04:15:08;;;;;;;0.00;0.00;;;;;;;;;;5119246;28;20248;-68
2021/07/21 04:17:35;;;;;;;0.05;0.05;;;;;;;;;;5118524;28;20198;-69
2021/07/21 04:20:04;;;;;;;0.10;0.10;;;;;;;;;;5111697;28;20471;-69
2021/07/21 04:22:30;;;;;;;0.10;0.10;;;;;;;;;;5114667;28;20208;-69
2021/07/21 04:24:58;;;;;;;0.00;0.00;;;;;;;;;;5123731;28;20200;-68
2021/07/21 04:27:24;;;;;;;0.10;0.10;;;;;;;;;;5125442;28;20268;-70
2021/07/21 04:29:51;;;;;;;0.10;0.10;;;;;;;;;;5124717;28;20198;-68
2021/07/21 04:32:18;;;;;;;0.00;0.00;;;;;;;;;;5105597;28;20201;-69
2021/07/21 04:34:45;;;;;;;0.10;0.10;;;;;;;;;;5119870;28;20557;-68
2021/07/21 04:37:13;;;;;;;0.00;0.00;;;;;;;;;;5125651;28;20235;-69
2021/07/21 04:39:40;;;;;;;0.00;0.00;;;;;;;;;;5121783;28;20211;-69
2021/07/21 04:42:08;;;;;;;0.10;0.10;;;;;;;;;;5111042;28;20202;-68
2021/07/21 04:44:35;;;;;;;0.00;0.00;;;;;;;;;;5124306;28;20202;-70
2021/07/21 04:47:01;;;;;;;0.10;0.10;;;;;;;;;;5104911;28;20272;-69
2021/07/21 04:49:28;;;;;;;0.00;0.00;;;;;;;;;;5111408;28;20201;-69
2021/07/21 04:51:56;;;;;;;0.08;0.08;;;;;;;;;;5110229;28;20195;-70
2021/07/21 04:54:24;;;;;;;0.10;0.10;;;;;;;;;;5106960;28;20201;-68
2021/07/21 04:56:50;;;;;;;0.10;0.10;;;;;;;;;;5111733;28;20229;-68
2021/07/21 04:59:16;;;;;;;0.05;0.05;;;;;;;;;;5111916;28;20215;-69
2021/07/21 05:01:42;;;;;;;0.10;0.10;;;;;;;;;;5106735;28;20206;-69
2021/07/21 05:04:09;;;;;;;0.00;0.00;;;;;;;;;;5110578;28;20250;-69
2021/07/21 05:06:36;;;;;;;0.05;0.05;;;;;;;;;;5113720;28;20421;-69
2021/07/21 05:09:03;;;;;;;0.03;0.03;;;;;;;;;;5108158;28;20417;-68
2021/07/21 05:11:30;;;;;;;0.10;0.10;;;;;;;;;;5107746;28;20205;-68
2021/07/21 05:13:57;;;;;;;0.10;0.10;;;;;;;;;;5109379;28;20203;-68
2021/07/21 05:16:24;;;;;;;0.00;0.00;;;;;;;;;;5110355;28;20205;-69
2021/07/21 05:18:50;;;;;;;0.00;0.00;;;;;;;;;;5113469;28;20448;-68
2021/07/21 05:21:16;;;;;;;0.03;0.03;;;;;;;;;;5108666;28;20367;-69
2021/07/21 05:23:43;;;;;;;0.00;0.00;;;;;;;;;;5108407;28;20265;-69
2021/07/21 05:26:11;;;;;;;0.05;0.05;;;;;;;;;;5107244;28;20214;-68
2021/07/21 05:28:39;;;;;;;0.05;0.05;;;;;;;;;;5112801;28;20416;-68
2021/07/21 05:31:06;;;;;;;0.10;0.10;;;;;;;;;;5108922;27;20205;-68
2021/07/21 05:33:32;;;;;;;0.10;0.10;;;;;;;;;;5106346;28;20226;-69
2021/07/21 05:35:58;;;;;;;0.00;0.00;;;;;;;;;;5106807;28;20267;-69
2021/07/21 05:38:24;;;;;;;0.10;0.10;;;;;;;;;;5105713;28;20488;-69
2021/07/21 05:40:51;;;;;;;0.00;0.00;;;;;;;;;;5108977;28;20386;-69
2021/07/21 05:43:17;;;;;;;0.00;0.00;;;;;;;;;;5112709;27;20508;-69
2021/07/21 05:45:45;;;;;;;0.00;0.00;;;;;;;;;;5106168;28;20212;-69
2021/07/21 05:48:11;;;;;;;0.00;0.00;;;;;;;;;;5106350;28;20252;-69
2021/07/21 05:50:38;;;;;;;0.00;0.00;;;;;;;;;;5105879;28;20209;-69
2021/07/21 05:53:04;;;;;;;0.00;0.00;;;;;;;;;;5111765;28;20204;-69
2021/07/21 05:55:31;;;;;;;0.00;0.00;;;;;;;;;;5103272;28;20209;-69
2021/07/21 05:57:57;;;;;;;0.00;0.00;;;;;;;;;;5106152;28;20269;-69
2021/07/21 06:00:24;;;;;;;0.00;0.00;;;;;;;;;;5112038;28;20202;-69
2021/07/21 06:02:51;;;;;;;0.00;0.00;;;;;;;;;;5108378;28;20206;-69
2021/07/21 06:05:18;;;;;;;0.05;0.05;;;;;;;;;;5117911;28;20504;-68
2021/07/21 06:07:44;;;;;;;0.00;0.00;;;;;;;;;;5112217;28;20260;-69
2021/07/21 06:10:11;;;;;;;0.10;0.10;;;;;;;;;;5108122;28;20543;-69
2021/07/21 06:12:37;;;;;;;0.00;0.00;;;;;;;;;;5111065;28;20258;-69
2021/07/21 06:15:04;;;;;;;0.00;0.00;;;;;;;;;;5102998;28;20205;-69
2021/07/21 06:17:31;;;;;;;0.00;0.00;;;;;;;;;;5103139;28;20208;-69
2021/07/21 06:19:58;;;;;;;0.10;0.10;;;;;;;;;;5107447;28;20241;-69
2021/07/21 06:22:25;;;;;;;0.10;0.10;;;;;;;;;;5107673;28;20491;-69
2021/07/21 06:24:51;;;;;;;0.00;0.00;;;;;;;;;;5106570;28;20239;-70
2021/07/21 06:27:17;;;;;;;0.00;0.00;;;;;;;;;;5106908;28;20492;-72
2021/07/21 06:29:44;;;;;;;0.10;0.10;;;;;;;;;;5123068;28;20228;-69
2021/07/21 06:32:10;;;;;;;0.08;0.08;;;;;;;;;;5121863;28;20206;-69
2021/07/21 06:34:36;;;;;;;0.10;0.10;;;;;;;;;;5107394;28;20220;-67
2021/07/21 06:37:04;;;;;;;0.00;0.00;;;;;;;;;;5122959;28;20262;-68
2021/07/21 06:39:30;;;;;;;0.10;0.10;;;;;;;;;;5110518;28;20198;-70
2021/07/21 06:41:56;;;;;;;0.00;0.00;;;;;;;;;;5123457;28;20204;-68
2021/07/21 06:44:23;;;;;;;0.10;0.10;;;;;;;;;;5119744;28;20209;-70
2021/07/21 06:46:49;;;;;;;0.05;0.05;;;;;;;;;;5116031;28;20367;-68
2021/07/21 06:49:15;;;;;;;0.10;0.10;;;;;;;;;;5108761;28;20219;-69
2021/07/21 06:51:41;;;;;;;0.10;0.10;;;;;;;;;;5115223;28;20223;-70
2021/07/21 06:54:09;;;;;;;0.08;0.08;;;;;;;;;;5126271;28;20231;-73
2021/07/21 06:56:35;;;;;;;0.00;0.00;;;;;;;;;;5119801;28;20404;-70
2021/07/21 06:59:01;;;;;;;0.10;0.10;;;;;;;;;;5112379;28;20531;-69
2021/07/21 07:01:28;;;;;;;0.00;0.00;;;;;;;;;;5126840;28;20198;-68
2021/07/21 07:03:54;;;;;;;0.00;0.00;;;;;;;;;;5127300;28;20206;-66
2021/07/21 07:06:20;;;;;;;0.00;0.00;;;;;;;;;;5123212;28;20204;-66
2021/07/21 07:08:46;;;;;;;0.10;0.10;;;;;;;;;;5123145;28;20257;-65
2021/07/21 07:11:14;;;;;;;0.10;0.10;;;;;;;;;;5110617;28;20206;-66
2021/07/21 07:13:40;;;;;;;0.00;0.00;;;;;;;;;;5115781;28;20245;-66
2021/07/21 07:16:07;;;;;;;0.10;0.10;;;;;;;;;;5127059;28;20200;-65
2021/07/21 07:18:33;;;;;;;0.10;0.10;;;;;;;;;;5117010;28;20231;-66
2021/07/21 07:21:00;;;;;;;0.08;0.08;;;;;;;;;;5108978;28;20199;-66
2021/07/21 07:23:26;;;;;;;0.00;0.00;;;;;;;;;;5122820;28;20203;-65
2021/07/21 07:25:54;;;;;;;0.15;0.15;;;;;;;;;;5126504;28;20297;-66
2021/07/21 07:28:21;;;;;;;0.00;0.00;;;;;;;;;;5125563;28;20221;-65
2021/07/21 07:30:48;;;;;;;0.10;0.10;;;;;;;;;;5118417;27;20434;-65
2021/07/21 07:33:14;;;;;;;0.08;0.08;;;;;;;;;;5122952;28;20300;-66
2021/07/21 07:35:40;;;;;;;0.10;0.10;;;;;;;;;;5125742;28;20542;-66
2021/07/21 07:38:07;;;;;;;0.10;0.10;;;;;;;;;;5126826;28;20201;-65
2021/07/21 07:40:33;;;;;;;0.00;0.00;;;;;;;;;;5124991;28;20537;-65
2021/07/21 07:42:59;;;;;;;0.10;0.10;;;;;;;;;;5126012;28;20205;-65
2021/07/21 07:45:27;;;;;;;0.00;0.00;;;;;;;;;;5127080;27;20374;-65
2021/07/21 07:47:53;;;;;;;0.00;0.00;;;;;;;;;;5113379;28;21541;-66
2021/07/21 07:50:19;;;;;;;0.00;0.00;;;;;;;;;;5128704;28;20208;-67
2021/07/21 07:52:47;;;;;;;0.00;0.00;;;;;;;;;;5115480;28;20517;-67
2021/07/21 07:58:12;;;;;;;0.10;0.10;;;;;;;;;;5115858;28;20241;-66
2021/07/21 08:00:40;;;;;;;0.05;0.05;;;;;;;;;;5113720;28;20512;-66
2021/07/21 08:03:07;;;;;;;0.00;0.00;;;;;;;;;;5120844;28;20374;-65
2021/07/21 08:05:33;;;;;;;0.10;0.10;;;;;;;;;;5123683;28;20271;-66
2021/07/21 08:08:01;;;;;;;0.10;0.10;;;;;;;;;;5111377;28;20200;-66
2021/07/21 08:10:27;;;;;;;0.00;0.00;;;;;;;;;;5113654;28;20227;-65
2021/07/21 08:12:54;;;;;;;0.10;0.10;;;;;;;;;;5121444;28;20256;-66
2021/07/21 08:15:20;;;;;;;0.03;0.03;;;;;;;;;;5119758;27;20268;-65
2021/07/21 08:17:48;;;;;;;0.10;0.10;;;;;;;;;;5115551;28;20233;-66
2021/07/21 08:20:14;;;;;;;0.10;0.10;;;;;;;;;;5125138;28;20278;-64
2021/07/21 08:22:40;;;;;;;0.10;0.10;;;;;;;;;;5120230;28;20276;-65
2021/07/21 08:25:08;;;;;;;0.00;0.00;;;;;;;;;;5112269;28;20357;-64
2021/07/21 08:27:35;;;;;;;0.08;0.08;;;;;;;;;;5115008;28;20204;-67
2021/07/21 08:30:01;;;;;;;0.00;0.00;;;;;;;;;;5113529;28;20224;-65
2021/07/21 08:32:27;;;;;;;0.10;0.10;;;;;;;;;;5115773;28;20212;-65
2021/07/21 08:34:55;;;;;;;0.05;0.05;;;;;;;;;;5121594;28;20488;-65
2021/07/21 08:37:21;;;;;;;0.00;0.00;;;;;;;;;;5112578;28;20207;-65
2021/07/21 08:39:47;;;;;;;0.00;0.00;;;;;;;;;;5108306;28;20201;-65
2021/07/21 08:42:14;;;;;;;0.00;0.00;;;;;;;;;;5122389;28;20209;-65
2021/07/21 08:44:40;;;;;;;0.00;0.00;;;;;;;;;;5125183;28;20266;-65
2021/07/21 08:47:07;;;;;;;0.68;0.68;;;;;;;;;;5125310;28;20261;-65
2021/07/21 08:49:33;;;;;;;0.00;0.00;;;;;;;;;;5112102;28;20221;-65
2021/07/21 08:52:02;;;;;;;0.00;0.00;;;;;;;;;;5116604;28;20250;-66
2021/07/21 08:54:29;;;;;;;0.10;0.10;;;;;;;;;;5133271;28;20209;-66
2021/07/21 08:56:57;;;;;;;0.00;0.00;;;;;;;;;;5121468;28;20206;-69
2021/07/21 08:59:31;;;;;;;0.10;0.10;;;;;;;;;;5126953;28;20192;-70
2021/07/21 09:01:58;;;;;;;0.10;0.10;;;;;;;;;;5121960;28;20197;-68
2021/07/21 09:04:24;;;;;;;0.00;0.00;;;;;;;;;;5125505;28;20372;-69
2021/07/21 09:06:51;;;;;;;0.10;0.10;;;;;;;;;;5117726;27;20247;-69
2021/07/21 09:09:19;;;;;;;0.05;0.05;;;;;;;;;;5119504;28;20221;-69
2021/07/21 09:11:45;;;;;;;0.03;0.03;;;;;;;;;;5118049;28;20282;-70
2021/07/21 09:14:11;;;;;;;0.00;0.00;;;;;;;;;;5118442;28;20473;-68
2021/07/21 09:16:38;;;;;;;0.00;0.00;;;;;;;;;;5124802;28;20211;-69
2021/07/21 09:19:04;;;;;;;0.00;0.00;;;;;;;;;;5113127;28;20426;-71
2021/07/21 09:21:30;;;;;;;0.25;0.25;;;;;;;;;;5118579;28;20205;-69
2021/07/21 09:23:58;;;;;;;0.00;0.00;;;;;;;;;;5113672;28;20250;-70
2021/07/21 09:26:39;;;;;;;0.10;0.10;;;;;;;;;;5122759;28;20212;-68
2021/07/21 09:29:05;;;;;;;0.08;0.08;;;;;;;;;;5124816;28;20243;-68
2021/07/21 09:31:32;;;;;;;0.00;0.00;;;;;;;;;;5124759;28;20426;-69
2021/07/21 09:33:59;;;;;;;0.00;0.00;;;;;;;;;;5123486;28;20505;-69
2021/07/21 09:36:25;;;;;;;0.10;0.10;;;;;;;;;;5124299;28;20209;-69
2021/07/21 09:38:59;;;;;;;0.00;0.00;;;;;;;;;;5118512;28;20392;-69
2021/07/21 09:41:26;;;;;;;0.00;0.00;;;;;;;;;;5114299;28;20199;-69
2021/07/21 09:43:58;;;;;;;0.00;0.00;;;;;;;;;;5109003;28;20204;-69
2021/07/21 09:46:25;;;;;;;0.00;0.00;;;;;;;;;;5119607;28;20271;-69
2021/07/21 09:48:51;;;;;;;0.00;0.00;;;;;;;;;;5123803;28;20526;-69
2021/07/21 09:51:25;;;;;;;0.08;0.08;;;;;;;;;;5123677;28;20200;-68
2021/07/21 09:53:52;;;;;;;0.10;0.10;;;;;;;;;;5110288;28;20201;-70
2021/07/21 09:56:28;;;;;;;0.00;0.00;;;;;;;;;;5104018;28;20305;-69
2021/07/21 09:59:15;;;;;;;0.05;0.05;;;;;;;;;;5117423;28;20190;-70
2021/07/21 10:01:41;;;;;;;0.00;0.00;;;;;;;;;;5112090;28;20476;-69
2021/07/21 10:04:08;;;;;;;0.00;0.00;;;;;;;;;;5124165;28;20203;-70
2021/07/21 10:06:38;;;;;;;0.10;0.10;;;;;;;;;;5119386;28;20200;-70
2021/07/21 10:09:04;;;;;;;0.10;0.10;;;;;;;;;;5122848;28;20503;-68
2021/07/21 10:11:31;;;;;;;0.00;0.00;;;;;;;;;;5119895;28;20208;-68
2021/07/21 10:14:13;;;;;;;0.00;0.00;;;;;;;;;;5114533;28;20255;-68
2021/07/21 10:16:44;;;;;;;0.00;0.00;;;;;;;;;;5107775;28;20204;-69
2021/07/21 10:19:12;;;;;;;0.00;0.00;;;;;;;;;;5108812;28;20235;-69
2021/07/21 10:21:40;;;;;;;0.10;0.10;;;;;;;;;;5108962;28;20205;-70
2021/07/21 10:24:06;;;;;;;0.00;0.00;;;;;;;;;;5109134;28;20220;-69
2021/07/21 10:26:33;;;;;;;0.20;0.20;;;;;;;;;;5107258;28;20224;-69
2021/07/21 10:29:00;;;;;;;0.00;0.00;;;;;;;;;;5119287;28;20213;-68
2021/07/21 10:31:28;;;;;;;0.00;0.00;;;;;;;;;;5124220;28;20206;-68
2021/07/21 10:33:55;;;;;;;0.00;0.00;;;;;;;;;;5113162;28;20500;-68
2021/07/21 10:36:21;;;;;;;0.00;0.00;;;;;;;;;;5116103;28;20273;-68
2021/07/21 10:38:48;;;;;;;0.00;0.00;;;;;;;;;;5122416;28;20215;-69
2021/07/21 10:41:14;;;;;;;0.00;0.00;;;;;;;;;;5125158;28;20254;-69
2021/07/21 10:43:43;;;;;;;0.40;0.40;;;;;;;;;;5125370;28;20264;-68
2021/07/21 10:46:24;;;;;;;0.10;0.10;;;;;;;;;;5126370;28;20455;-68
2021/07/21 10:48:56;;;;;;;0.00;0.00;;;;;;;;;;5124145;28;20305;-69
2021/07/21 10:51:34;;;;;;;0.00;0.00;;;;;;;;;;5119550;28;20195;-70
2021/07/21 10:54:09;;;;;;;0.00;0.00;;;;;;;;;;5118434;28;20201;-70
2021/07/21 10:59:21;;;;;;;0.00;0.00;;;;;;;;;;5115946;28;20205;-70
2021/07/21 11:01:48;;;;;;;0.00;0.00;;;;;;;;;;5110815;28;20490;-70
2021/07/21 11:04:15;;;;;;;0.00;0.00;;;;;;;;;;5109765;28;20218;-74
2021/07/21 11:06:42;;;;;;;0.00;0.00;;;;;;;;;;5112912;28;20496;-74
2021/07/21 11:09:16;;;;;;;0.00;0.00;;;;;;;;;;5109468;28;20216;-73
2021/07/21 11:11:42;;;;;;;0.00;0.00;;;;;;;;;;5119262;28;20505;-73
2021/07/21 11:14:10;;;;;;;0.10;0.10;;;;;;;;;;5110269;28;20199;-74
2021/07/21 11:16:40;;;;;;;0.10;0.10;;;;;;;;;;5103295;28;20380;-74
2021/07/21 11:19:25;;;;;;;0.10;0.10;;;;;;;;;;5108716;28;20232;-74
2021/07/21 11:21:55;;;;;;;0.00;0.00;;;;;;;;;;5111954;28;20383;-73
2021/07/21 11:24:21;;;;;;;0.00;0.00;;;;;;;;;;5109577;28;20228;-73
2021/07/21 11:26:50;;;;;;;0.00;0.00;;;;;;;;;;5106198;28;20277;-72
2021/07/21 11:29:35;;;;;;;0.00;0.00;;;;;;;;;;5109178;28;20494;-70
2021/07/21 11:32:02;;;;;;;0.00;0.00;;;;;;;;;;5114261;28;20331;-70
2021/07/21 11:34:30;;;;;;;0.00;0.00;;;;;;;;;;5110066;28;20366;-70
2021/07/21 11:36:57;;;;;;;0.10;0.10;;;;;;;;;;5112050;28;20359;-73
2021/07/21 11:39:39;;;;;;;0.00;0.00;;;;;;;;;;5112485;28;20231;-71
2021/07/21 11:42:06;;;;;;;0.00;0.00;;;;;;;;;;5119149;28;20194;-71
2021/07/21 11:44:34;;;;;;;0.00;0.00;;;;;;;;;;5121329;28;20263;-71
2021/07/21 11:47:01;;;;;;;0.05;0.05;;;;;;;;;;5119668;28;20469;-71
2021/07/21 11:49:28;;;;;;;0.00;0.00;;;;;;;;;;5107426;28;20238;-71
2021/07/21 11:51:57;;;;;;;0.00;0.00;;;;;;;;;;5120549;28;20290;-71
2021/07/21 11:54:24;;;;;;;0.35;0.35;;;;;;;;;;5124340;28;20205;-73
2021/07/21 11:56:50;;;;;;;0.10;0.10;;;;;;;;;;5126512;28;20202;-72
2021/07/21 11:59:25;;;;;;;0.00;0.00;;;;;;;;;;5118570;28;20217;-71
2021/07/21 12:02:01;;;;;;;0.00;0.00;;;;;;;;;;5120775;28;20197;-72
2021/07/21 12:04:27;;;;;;;0.08;0.08;;;;;;;;;;5126465;28;20202;-74
2021/07/21 12:06:55;;;;;;;0.20;0.20;;;;;;;;;;5112812;28;20199;-71
2021/07/21 12:09:25;;;;;;;0.00;0.00;;;;;;;;;;5118322;28;20209;-72
2021/07/21 12:11:53;;;;;;;0.05;0.05;;;;;;;;;;5113848;28;20220;-73
2021/07/21 12:14:22;;;;;;;0.00;0.00;;;;;;;;;;5125475;28;20202;-70
2021/07/21 12:16:48;;;;;;;0.00;0.00;;;;;;;;;;5118601;28;20508;-70
2021/07/21 12:19:14;;;;;;;0.00;0.00;;;;;;;;;;5118567;28;20546;-73
2021/07/21 12:21:40;;;;;;;0.00;0.00;;;;;;;;;;5108984;28;20202;-71
2021/07/21 12:24:12;;;;;;;0.00;0.00;;;;;;;;;;5125576;28;20288;-71
2021/07/21 12:26:39;;;;;;;0.10;0.10;;;;;;;;;;5122324;27;20226;-71
2021/07/21 12:29:05;;;;;;;0.00;0.00;;;;;;;;;;5107550;28;20453;-70
2021/07/21 12:31:32;;;;;;;0.10;0.10;;;;;;;;;;5119990;28;20355;-69
2021/07/21 12:34:10;;;;;;;0.10;0.10;;;;;;;;;;5111204;28;20198;-69
2021/07/21 12:36:36;;;;;;;0.00;0.00;;;;;;;;;;5109765;28;20201;-70
2021/07/21 12:39:04;;;;;;;0.00;0.00;;;;;;;;;;5114039;28;20386;-70
2021/07/21 12:41:32;;;;;;;0.00;0.00;;;;;;;;;;5114771;28;20248;-69
2021/07/21 12:43:58;;;;;;;0.10;0.10;;;;;;;;;;5112752;28;20296;-68
2021/07/21 12:46:25;;;;;;;0.00;0.00;;;;;;;;;;5118818;28;20206;-69
2021/07/21 12:48:54;;;;;;;0.00;0.00;;;;;;;;;;5120501;28;20447;-71
2021/07/21 12:51:20;;;;;;;0.00;0.00;;;;;;;;;;5109539;28;20225;-70
2021/07/21 12:53:47;;;;;;;0.00;0.00;;;;;;;;;;5118045;28;20504;-66
2021/07/21 12:56:14;;;;;;;0.00;0.00;;;;;;;;;;5113355;28;20205;-68
2021/07/21 12:58:42;;;;;;;0.00;0.00;;;;;;;;;;5118184;28;20497;-68
2021/07/21 13:01:08;;;;;;;0.00;0.00;;;;;;;;;;5109358;28;20205;-70
2021/07/21 13:03:46;;;;;;;0.00;0.00;;;;;;;;;;5108828;28;20214;-70
2021/07/21 13:06:22;;;;;;;0.00;0.00;;;;;;;;;;5114951;28;20441;-68
2021/07/21 13:08:49;;;;;;;1.55;0.88;;;;;;;;;;5107242;28;20200;-69
2021/07/21 13:11:15;;;;;;;0.00;0.00;;;;;;;;;;5106653;28;20528;-70
2021/07/21 13:13:44;;;;;;;0.00;0.00;;;;;;;;;;5111200;28;20257;-69
2021/07/21 13:16:11;;;;;;;0.00;0.00;;;;;;;;;;5110804;28;20288;-69
2021/07/21 13:18:38;;;;;;;0.00;0.00;;;;;;;;;;5110609;28;20524;-68
2021/07/21 13:21:20;;;;;;;0.03;0.03;;;;;;;;;;5109098;28;20501;-69
2021/07/21 13:23:47;;;;;;;0.00;0.00;;;;;;;;;;5108640;28;20257;-69
2021/07/21 13:26:14;;;;;;;0.00;0.00;;;;;;;;;;5107311;28;20275;-70
2021/07/21 13:28:44;;;;;;;0.05;0.05;;;;;;;;;;5112902;28;20210;-70
2021/07/21 13:31:15;;;;;;;0.10;0.10;;;;;;;;;;5109176;27;20499;-71
2021/07/21 13:33:42;;;;;;;0.08;0.08;;;;;;;;;;5103526;28;20217;-69
2021/07/21 13:36:09;;;;;;;0.00;0.00;;;;;;;;;;5113942;28;20293;-69
2021/07/21 13:38:35;;;;;;;0.00;0.00;;;;;;;;;;5114500;28;20443;-68
2021/07/21 13:41:03;;;;;;;0.00;0.00;;;;;;;;;;5114358;28;20198;-68
2021/07/21 13:43:30;;;;;;;0.00;0.00;;;;;;;;;;5116616;28;20280;-69
2021/07/21 13:45:57;;;;;;;0.00;0.00;;;;;;;;;;5115478;28;20198;-68
2021/07/21 13:48:27;;;;;;;0.00;0.00;;;;;;;;;;5114790;28;20203;-68
2021/07/21 13:51:12;;;;;;;0.00;0.00;;;;;;;;;;5114419;28;20218;-68
2021/07/21 13:53:39;;;;;;;0.10;0.10;;;;;;;;;;5108728;28;20243;-68
2021/07/21 13:56:05;;;;;;;0.00;0.00;;;;;;;;;;5112969;28;20201;-68
2021/07/21 13:58:32;;;;;;;0.00;0.00;;;;;;;;;;5110244;27;20412;-67
2021/07/21 14:00:59;;;;;;;0.00;0.00;;;;;;;;;;5113906;28;20239;-68
2021/07/21 14:03:26;;;;;;;0.00;0.00;;;;;;;;;;5111900;28;20344;-68
2021/07/21 14:05:52;;;;;;;0.00;0.00;;;;;;;;;;5111010;28;20225;-67
2021/07/21 14:08:18;;;;;;;0.00;0.00;;;;;;;;;;5117982;28;20208;-68
2021/07/21 14:10:44;;;;;;;0.00;0.00;;;;;;;;;;5111471;28;20523;-69
2021/07/21 14:13:11;;;;;;;0.00;0.00;;;;;;;;;;5116448;28;20270;-69
2021/07/21 14:15:37;;;;;;;0.00;0.00;;;;;;;;;;5122086;28;20209;-68
2021/07/21 14:18:05;;;;;;;0.00;0.00;;;;;;;;;;5117950;28;20231;-68
2021/07/21 14:20:31;;;;;;;0.00;0.00;;;;;;;;;;5118561;28;20209;-67
2021/07/21 14:22:57;;;;;;;0.00;0.00;;;;;;;;;;5111985;28;20469;-68
2021/07/21 14:25:23;;;;;;;0.00;0.00;;;;;;;;;;5113598;28;20207;-68
2021/07/21 14:27:49;;;;;;;0.00;0.00;;;;;;;;;;5111098;28;20221;-68
2021/07/21 14:30:17;;;;;;;0.00;0.00;;;;;;;;;;5107192;28;20485;-68
2021/07/21 14:32:43;;;;;;;0.00;0.00;;;;;;;;;;5105646;28;20281;-68
2021/07/21 14:35:11;;;;;;;0.10;0.10;;;;;;;;;;5110822;28;20389;-68
2021/07/21 14:37:38;;;;;;;0.00;0.00;;;;;;;;;;5109795;28;20252;-69
2021/07/21 14:40:04;;;;;;;0.10;0.10;;;;;;;;;;5103370;28;20213;-69
2021/07/21 14:42:31;;;;;;;0.10;0.10;;;;;;;;;;5117421;28;20209;-69
2021/07/21 14:44:57;;;;;;;0.00;0.00;;;;;;;;;;5113421;28;20202;-69
2021/07/21 14:47:25;;;;;;;0.00;0.00;;;;;;;;;;5106847;28;20203;-68
2021/07/21 14:49:52;;;;;;;0.10;0.10;;;;;;;;;;5112068;28;20277;-68
2021/07/21 14:52:19;;;;;;;0.00;0.00;;;;;;;;;;5109055;28;20283;-68
2021/07/21 14:54:45;;;;;;;0.00;0.00;;;;;;;;;;5123587;28;20218;-69